createdAt,value
2023-05-21T00:00:33.513Z,16.10
2023-05-21T00:03:00.642Z,15.99
2023-05-21T00:05:27.643Z,15.98
2023-05-21T00:07:55.091Z,16.02
2023-05-21T00:10:22.147Z,15.96
2023-05-21T00:12:49.052Z,15.98
2023-05-21T00:15:17.288Z,16.01
2023-05-21T00:17:44.571Z,15.94
2023-05-21T00:20:12.889Z,15.92
2023-05-21T00:22:42.171Z,15.87
2023-05-21T00:25:09.769Z,15.85
2023-05-21T00:27:36.835Z,15.81
2023-05-21T00:30:04.222Z,15.68
2023-05-21T00:32:32.484Z,15.58
2023-05-21T00:34:59.408Z,15.53
2023-05-21T00:37:26.275Z,15.46
2023-05-21T00:39:53.096Z,15.49
2023-05-21T00:42:20.099Z,15.49
2023-05-21T00:44:47.105Z,15.47
2023-05-21T00:47:14.449Z,15.40
2023-05-21T00:49:42.689Z,15.37
2023-05-21T00:52:09.952Z,15.29
2023-05-21T00:54:36.975Z,15.28
2023-05-21T00:57:04.860Z,15.27
2023-05-21T00:59:32.514Z,15.28
2023-05-21T01:02:05.570Z,15.22
2023-05-21T01:04:32.603Z,15.19
2023-05-21T01:07:01.955Z,15.18
2023-05-21T01:09:28.895Z,15.10
2023-05-21T01:11:56.331Z,15.09
2023-05-21T01:14:24.442Z,15.08
2023-05-21T01:16:53.036Z,15.06
2023-05-21T01:19:22.866Z,14.99
2023-05-21T01:21:52.949Z,15.00
2023-05-21T01:24:21.496Z,14.93
2023-05-21T01:26:48.442Z,14.93
2023-05-21T01:29:15.765Z,14.83
2023-05-21T01:31:56.653Z,14.79
2023-05-21T01:34:29.368Z,14.75
2023-05-21T01:37:08.809Z,14.80
2023-05-21T01:39:40.118Z,14.74
2023-05-21T01:42:10.790Z,14.73
2023-05-21T01:44:37.977Z,14.72
2023-05-21T01:47:06.092Z,14.74
2023-05-21T01:49:33.554Z,14.66
2023-05-21T01:52:01.514Z,14.62
2023-05-21T01:54:28.376Z,14.60
2023-05-21T01:56:56.940Z,14.52
2023-05-21T01:59:23.834Z,14.41
2023-05-21T02:01:50.746Z,14.45
2023-05-21T02:04:17.592Z,14.48
2023-05-21T02:06:44.620Z,14.37
2023-05-21T02:09:11.886Z,14.40
2023-05-21T02:11:38.979Z,14.42
2023-05-21T02:14:10.442Z,14.36
2023-05-21T02:16:38.546Z,14.23
2023-05-21T02:19:06.751Z,14.19
2023-05-21T02:21:33.658Z,14.25
2023-05-21T02:24:00.530Z,14.29
2023-05-21T02:26:27.535Z,14.25
2023-05-21T02:28:55.514Z,14.21
2023-05-21T02:31:23.795Z,14.29
2023-05-21T02:33:50.737Z,14.20
2023-05-21T02:36:18.997Z,14.18
2023-05-21T02:38:46.639Z,14.15
2023-05-21T02:41:13.925Z,14.10
2023-05-21T02:43:40.980Z,14.08
2023-05-21T02:46:07.968Z,14.01
2023-05-21T02:48:36.330Z,14.01
2023-05-21T02:51:03.373Z,14.03
2023-05-21T02:53:30.465Z,14.03
2023-05-21T02:55:57.321Z,14.10
2023-05-21T02:58:25.326Z,14.05
2023-05-21T03:00:53.249Z,14.03
2023-05-21T03:03:20.328Z,14.03
2023-05-21T03:05:48.944Z,14.04
2023-05-21T03:08:15.916Z,14.10
2023-05-21T03:10:42.854Z,14.05
2023-05-21T03:13:10.172Z,14.07
2023-05-21T03:15:38.940Z,14.06
2023-05-21T03:18:06.223Z,13.95
2023-05-21T03:20:33.571Z,13.95
2023-05-21T03:23:04.398Z,13.94
2023-05-21T03:25:31.593Z,13.89
2023-05-21T03:27:58.660Z,13.84
2023-05-21T03:30:25.562Z,13.81
2023-05-21T03:32:52.609Z,13.94
2023-05-21T03:35:19.640Z,13.95
2023-05-21T03:37:46.570Z,13.88
2023-05-21T03:40:15.519Z,13.93
2023-05-21T03:42:42.554Z,13.88
2023-05-21T03:45:10.032Z,13.95
2023-05-21T03:47:36.878Z,14.01
2023-05-21T03:50:05.867Z,14.02
2023-05-21T03:52:32.916Z,14.00
2023-05-21T03:54:59.754Z,13.96
2023-05-21T03:57:28.312Z,14.00
2023-05-21T03:59:56.026Z,14.05
2023-05-21T04:02:23.354Z,13.98
2023-05-21T04:04:51.721Z,14.05
2023-05-21T04:07:19.292Z,14.06
2023-05-21T04:09:46.865Z,14.09
2023-05-21T04:12:14.242Z,14.09
2023-05-21T04:14:42.509Z,14.14
2023-05-21T04:17:09.797Z,14.20
2023-05-21T04:19:36.856Z,14.18
2023-05-21T04:22:04.021Z,14.31
2023-05-21T04:24:31.123Z,14.40
2023-05-21T04:27:01.351Z,14.43
2023-05-21T04:29:29.911Z,14.44
2023-05-21T04:31:58.134Z,14.50
2023-05-21T04:34:25.007Z,14.52
2023-05-21T04:36:52.081Z,14.59
2023-05-21T04:39:18.920Z,14.63
2023-05-21T04:41:45.813Z,14.67
2023-05-21T04:44:14.975Z,14.77
2023-05-21T04:46:42.811Z,14.91
2023-05-21T04:49:11.645Z,14.94
2023-05-21T04:51:38.503Z,14.99
2023-05-21T04:54:05.407Z,15.16
2023-05-21T04:56:32.256Z,15.22
2023-05-21T04:58:59.347Z,15.36
2023-05-21T05:01:27.422Z,15.46
2023-05-21T05:03:55.600Z,15.52
2023-05-21T05:06:26.007Z,15.59
2023-05-21T05:08:52.934Z,15.80
2023-05-21T05:11:19.871Z,15.97
2023-05-21T05:13:46.754Z,16.07
2023-05-21T05:16:14.584Z,16.05
2023-05-21T05:18:41.673Z,16.29
2023-05-21T05:21:08.624Z,16.29
2023-05-21T05:23:36.936Z,16.66
2023-05-21T05:26:03.795Z,17.08
2023-05-21T05:28:30.633Z,17.69
2023-05-21T05:30:57.506Z,17.75
2023-05-21T05:33:24.427Z,17.68
2023-05-21T05:35:51.348Z,17.50
2023-05-21T05:38:18.223Z,17.59
2023-05-21T05:40:46.579Z,17.55
2023-05-21T05:43:13.522Z,17.61
2023-05-21T05:45:40.459Z,17.86
2023-05-21T05:48:07.345Z,18.27
2023-05-21T05:50:34.266Z,18.25
2023-05-21T05:53:01.194Z,18.30
2023-05-21T05:55:28.069Z,18.23
2023-05-21T05:57:56.301Z,18.19
2023-05-21T06:00:23.183Z,18.28
2023-05-21T06:02:50.154Z,18.34
2023-05-21T06:05:17.238Z,18.52
2023-05-21T06:07:44.311Z,18.63
2023-05-21T06:10:11.179Z,18.98
2023-05-21T06:12:38.116Z,19.15
2023-05-21T06:15:07.613Z,19.45
2023-05-21T06:17:34.618Z,19.72
2023-05-21T06:20:01.574Z,20.85
2023-05-21T06:22:28.373Z,21.32
2023-05-21T06:24:55.264Z,20.62
2023-05-21T06:27:22.207Z,21.99
2023-05-21T06:29:49.084Z,22.90
2023-05-21T06:32:17.395Z,23.06
2023-05-21T06:34:44.369Z,23.57
2023-05-21T06:37:11.315Z,23.91
2023-05-21T06:39:38.295Z,24.80
2023-05-21T06:42:05.749Z,24.39
2023-05-21T06:44:32.672Z,23.66
2023-05-21T06:46:59.574Z,23.19
2023-05-21T06:49:27.935Z,23.58
2023-05-21T06:51:54.809Z,23.43
2023-05-21T06:54:21.784Z,23.60
2023-05-21T06:56:48.922Z,23.66
2023-05-21T06:59:16.187Z,23.37
2023-05-21T07:01:44.205Z,23.86
2023-05-21T07:04:11.400Z,23.96
2023-05-21T07:06:40.315Z,23.50
2023-05-21T07:09:07.338Z,23.42
2023-05-21T07:11:34.226Z,23.80
2023-05-21T07:14:02.160Z,23.63
2023-05-21T07:16:29.030Z,24.39
2023-05-21T07:18:56.103Z,24.59
2023-05-21T07:21:23.113Z,25.49
2023-05-21T07:23:51.577Z,25.16
2023-05-21T07:26:18.611Z,25.56
2023-05-21T07:28:45.574Z,24.78
2023-05-21T07:31:12.799Z,25.40
2023-05-21T07:33:40.108Z,25.78
2023-05-21T07:36:07.353Z,25.66
2023-05-21T07:38:34.663Z,25.61
2023-05-21T07:41:03.004Z,25.13
2023-05-21T07:43:31.747Z,24.53
2023-05-21T07:45:58.698Z,25.99
2023-05-21T07:48:27.009Z,26.94
2023-05-21T07:50:54.013Z,26.22
2023-05-21T07:53:20.936Z,25.60
2023-05-21T07:55:48.208Z,26.39
2023-05-21T07:58:18.963Z,26.71
2023-05-21T08:00:47.585Z,25.68
2023-05-21T08:03:16.505Z,26.49
2023-05-21T08:05:44.936Z,26.59
2023-05-21T08:08:12.908Z,27.06
2023-05-21T08:10:40.011Z,26.47
2023-05-21T08:13:06.894Z,25.90
2023-05-21T08:15:35.344Z,26.99
2023-05-21T08:18:02.515Z,26.37
2023-05-21T08:20:31.048Z,25.95
2023-05-21T08:22:58.133Z,25.55
2023-05-21T08:25:25.043Z,26.28
2023-05-21T08:27:52.525Z,26.40
2023-05-21T08:30:19.878Z,26.00
2023-05-21T08:32:49.063Z,25.07
2023-05-21T08:35:16.753Z,25.03
2023-05-21T08:37:43.685Z,24.52
2023-05-21T08:40:12.413Z,24.69
2023-05-21T08:42:43.942Z,25.50
2023-05-21T08:45:13.256Z,24.52
2023-05-21T08:47:43.627Z,25.21
2023-05-21T08:50:13.488Z,25.36
2023-05-21T08:52:40.569Z,24.88
2023-05-21T08:55:08.777Z,25.64
2023-05-21T08:57:36.839Z,25.12
2023-05-21T09:00:05.557Z,26.74
2023-05-21T09:02:34.376Z,26.22
2023-05-21T09:05:03.420Z,25.74
2023-05-21T09:07:34.478Z,26.06
2023-05-21T09:10:05.252Z,26.03
2023-05-21T09:12:32.921Z,26.42
2023-05-21T09:15:00.544Z,25.82
2023-05-21T09:17:27.763Z,25.37
2023-05-21T09:20:16.265Z,25.42
2023-05-21T09:22:46.116Z,24.54
2023-05-21T09:25:13.985Z,24.80
2023-05-21T09:27:41.110Z,24.46
2023-05-21T09:30:11.336Z,24.67
2023-05-21T09:32:38.646Z,25.11
2023-05-21T09:35:10.249Z,25.06
2023-05-21T09:37:40.993Z,24.46
2023-05-21T09:40:15.342Z,24.48
2023-05-21T09:42:46.267Z,24.75
2023-05-21T09:45:17.457Z,24.72
2023-05-21T09:47:45.565Z,24.48
2023-05-21T09:50:13.259Z,23.93
2023-05-21T09:52:42.094Z,24.42
2023-05-21T09:55:13.494Z,24.10
2023-05-21T09:57:41.641Z,24.51
2023-05-21T10:00:10.766Z,24.84
2023-05-21T10:02:44.658Z,25.24
2023-05-21T10:05:13.770Z,24.48
2023-05-21T10:07:42.503Z,24.44
2023-05-21T10:10:16.977Z,24.33
2023-05-21T10:12:46.060Z,24.20
2023-05-21T10:15:22.594Z,24.89
2023-05-21T10:17:50.000Z,25.83
2023-05-21T10:20:17.489Z,26.55
2023-05-21T10:22:44.914Z,25.21
2023-05-21T10:25:15.781Z,25.99
2023-05-21T10:27:43.190Z,24.91
2023-05-21T10:30:10.909Z,25.79
2023-05-21T10:32:42.077Z,26.34
2023-05-21T10:35:10.121Z,24.93
2023-05-21T10:37:37.063Z,24.59
2023-05-21T10:40:04.638Z,23.97
2023-05-21T10:42:59.283Z,23.92
2023-05-21T10:45:40.244Z,24.17
2023-05-21T10:48:25.066Z,25.05
2023-05-21T10:51:13.882Z,24.07
2023-05-21T10:54:01.449Z,24.41
2023-05-21T10:56:33.006Z,24.36
2023-05-21T10:59:35.016Z,24.58
2023-05-21T11:02:03.820Z,24.54
2023-05-21T11:04:30.851Z,24.45
2023-05-21T11:06:59.280Z,24.27
2023-05-21T11:09:27.027Z,24.61
2023-05-21T11:11:58.293Z,25.08
2023-05-21T11:14:39.661Z,24.37
2023-05-21T11:17:15.020Z,24.00
2023-05-21T11:19:43.530Z,23.67
2023-05-21T11:22:24.730Z,24.34
2023-05-21T11:24:52.545Z,24.45
2023-05-21T11:27:34.827Z,24.48
2023-05-21T11:30:06.705Z,24.64
2023-05-21T11:32:37.176Z,24.92
2023-05-21T11:35:04.563Z,24.44
2023-05-21T11:37:34.575Z,23.82
2023-05-21T11:40:22.854Z,24.33
2023-05-21T11:42:52.832Z,24.14
2023-05-21T11:45:22.189Z,24.73
2023-05-21T11:47:49.886Z,24.30
2023-05-21T11:50:17.585Z,23.99
2023-05-21T11:52:44.846Z,24.17
2023-05-21T11:55:12.067Z,24.41
2023-05-21T11:57:42.194Z,24.00
2023-05-21T12:00:15.337Z,24.34
2023-05-21T12:02:50.663Z,24.59
2023-05-21T12:05:17.595Z,25.31
2023-05-21T12:07:48.693Z,24.43
2023-05-21T12:10:15.852Z,24.24
2023-05-21T12:12:53.793Z,24.20
2023-05-21T12:15:24.348Z,24.23
2023-05-21T12:17:53.268Z,23.00
2023-05-21T12:20:20.900Z,23.46
2023-05-21T12:22:48.968Z,23.44
2023-05-21T12:25:19.861Z,24.00
2023-05-21T12:27:46.920Z,24.19
2023-05-21T12:30:14.244Z,23.35
2023-05-21T12:32:44.188Z,24.07
2023-05-21T12:35:22.957Z,24.11
2023-05-21T12:37:51.066Z,23.87
2023-05-21T12:40:18.812Z,24.29
2023-05-21T12:42:45.789Z,24.13
2023-05-21T12:45:13.535Z,23.90
2023-05-21T12:47:40.644Z,23.22
2023-05-21T12:50:13.978Z,22.71
2023-05-21T12:52:43.112Z,22.99
2023-05-21T12:55:13.106Z,23.33
2023-05-21T12:57:39.988Z,23.26
2023-05-21T13:00:08.038Z,23.89
2023-05-21T13:02:38.826Z,23.67
2023-05-21T13:05:07.373Z,23.65
2023-05-21T13:07:35.883Z,24.26
2023-05-21T13:10:05.534Z,24.60
2023-05-21T13:12:33.530Z,24.90
2023-05-21T13:15:01.614Z,23.80
2023-05-21T13:17:29.140Z,23.46
2023-05-21T13:20:07.769Z,23.82
2023-05-21T13:22:36.081Z,24.44
2023-05-21T13:25:05.435Z,24.38
2023-05-21T13:27:32.461Z,24.17
2023-05-21T13:29:59.461Z,23.09
2023-05-21T13:32:26.505Z,23.37
2023-05-21T13:34:53.453Z,23.29
2023-05-21T13:37:20.779Z,23.65
2023-05-21T13:39:47.904Z,24.37
2023-05-21T13:42:16.287Z,23.77
2023-05-21T13:44:43.154Z,24.51
2023-05-21T13:47:10.686Z,25.40
2023-05-21T13:49:38.622Z,24.75
2023-05-21T13:52:06.563Z,23.10
2023-05-21T13:54:33.470Z,24.30
2023-05-21T13:57:00.555Z,24.42
2023-05-21T13:59:30.744Z,24.11
2023-05-21T14:01:59.657Z,24.33
2023-05-21T14:04:26.618Z,24.16
2023-05-21T14:06:53.775Z,24.00
2023-05-21T14:09:21.584Z,23.71
2023-05-21T14:11:48.553Z,23.30
2023-05-21T14:14:19.028Z,22.98
2023-05-21T14:16:47.726Z,23.10
2023-05-21T14:19:14.905Z,22.93
2023-05-21T14:21:41.788Z,22.90
2023-05-21T14:24:08.667Z,23.10
2023-05-21T14:26:40.069Z,23.35
2023-05-21T14:29:07.287Z,23.58
2023-05-21T14:31:34.319Z,24.45
2023-05-21T14:34:07.880Z,24.67
2023-05-21T14:36:34.690Z,23.27
2023-05-21T14:39:01.661Z,23.95
2023-05-21T14:41:29.200Z,24.21
2023-05-21T14:43:56.235Z,23.43
2023-05-21T14:46:23.337Z,23.06
2023-05-21T14:48:50.324Z,23.46
2023-05-21T14:51:19.315Z,23.89
2023-05-21T14:53:46.213Z,24.18
2023-05-21T14:56:13.095Z,23.48
2023-05-21T14:58:39.979Z,23.89
2023-05-21T15:01:07.113Z,23.35
2023-05-21T15:03:34.197Z,23.42
2023-05-21T15:06:01.098Z,23.58
2023-05-21T15:08:29.418Z,23.21
2023-05-21T15:10:57.131Z,23.55
2023-05-21T15:13:23.982Z,22.90
2023-05-21T15:15:51.259Z,22.68
2023-05-21T15:18:18.209Z,22.39
2023-05-21T15:20:45.157Z,21.97
2023-05-21T15:23:17.168Z,22.12
2023-05-21T15:25:46.169Z,22.82
2023-05-21T15:28:13.181Z,23.23
2023-05-21T15:30:40.381Z,22.75
2023-05-21T15:33:07.250Z,22.65
2023-05-21T15:35:35.457Z,22.18
2023-05-21T15:38:02.891Z,22.82
2023-05-21T15:40:29.872Z,22.92
2023-05-21T15:42:58.326Z,22.80
2023-05-21T15:45:25.436Z,22.70
2023-05-21T15:47:53.079Z,23.04
2023-05-21T15:50:19.967Z,22.67
2023-05-21T15:52:46.844Z,21.89
2023-05-21T15:55:14.326Z,21.77
2023-05-21T15:57:41.270Z,22.07
2023-05-21T16:00:11.215Z,21.89
2023-05-21T16:02:38.178Z,21.39
2023-05-21T16:05:05.581Z,21.83
2023-05-21T16:07:32.402Z,21.75
2023-05-21T16:09:59.240Z,21.55
2023-05-21T16:12:26.472Z,21.47
2023-05-21T16:14:53.386Z,21.22
2023-05-21T16:17:21.684Z,22.14
2023-05-21T16:19:48.571Z,20.95
2023-05-21T16:22:15.610Z,21.26
2023-05-21T16:24:42.630Z,21.70
2023-05-21T16:27:09.569Z,21.52
2023-05-21T16:29:38.166Z,21.28
2023-05-21T16:32:06.694Z,20.92
2023-05-21T16:34:36.364Z,21.12
2023-05-21T16:37:03.420Z,20.96
2023-05-21T16:39:30.336Z,20.79
2023-05-21T16:41:59.748Z,20.70
2023-05-21T16:44:27.263Z,20.94
2023-05-21T16:46:54.349Z,20.87
2023-05-21T16:49:21.377Z,20.79
2023-05-21T16:51:49.715Z,20.41
2023-05-21T16:54:16.757Z,20.60
2023-05-21T16:56:43.635Z,19.89
2023-05-21T16:59:10.637Z,20.39
2023-05-21T17:01:37.677Z,20.26
2023-05-21T17:04:04.926Z,20.20
2023-05-21T17:06:31.905Z,20.75
2023-05-21T17:09:00.179Z,19.60
2023-05-21T17:11:27.137Z,19.74
2023-05-21T17:13:54.020Z,20.49
2023-05-21T17:16:21.000Z,19.95
2023-05-21T17:18:47.960Z,20.19
2023-05-21T17:21:14.823Z,20.51
2023-05-21T17:23:43.002Z,20.26
2023-05-21T17:26:11.386Z,19.80
2023-05-21T17:28:38.366Z,19.57
2023-05-21T17:31:08.615Z,19.82
2023-05-21T17:33:36.446Z,19.32
2023-05-21T17:36:03.666Z,19.69
2023-05-21T17:38:30.553Z,19.87
2023-05-21T17:40:58.913Z,19.75
2023-05-21T17:43:27.790Z,19.44
2023-05-21T17:45:54.787Z,19.40
2023-05-21T17:48:21.989Z,19.11
2023-05-21T17:50:48.943Z,19.35
2023-05-21T17:53:16.485Z,19.28
2023-05-21T17:55:43.512Z,19.35
2023-05-21T17:58:10.512Z,18.88
2023-05-21T18:00:38.773Z,19.24
2023-05-21T18:03:05.826Z,19.18
2023-05-21T18:05:32.789Z,18.88
2023-05-21T18:08:01.196Z,18.55
2023-05-21T18:10:28.312Z,19.18
2023-05-21T18:12:55.416Z,18.93
2023-05-21T18:15:22.388Z,18.94
2023-05-21T18:17:50.684Z,18.88
2023-05-21T18:20:17.705Z,19.02
2023-05-21T18:22:44.880Z,18.94
2023-05-21T18:25:11.897Z,18.97
2023-05-21T18:27:38.789Z,18.51
2023-05-21T18:30:07.080Z,19.13
2023-05-21T18:32:34.599Z,19.28
2023-05-21T18:35:03.117Z,18.89
2023-05-21T18:37:29.942Z,18.74
2023-05-21T18:39:56.874Z,18.56
2023-05-21T18:42:23.812Z,18.89
2023-05-21T18:44:51.504Z,18.56
2023-05-21T18:47:18.515Z,18.17
2023-05-21T18:49:45.453Z,18.19
2023-05-21T18:52:14.131Z,18.21
2023-05-21T18:54:41.027Z,18.11
2023-05-21T18:57:07.867Z,18.09
2023-05-21T18:59:34.729Z,18.02
2023-05-21T19:02:01.675Z,17.95
2023-05-21T19:04:28.833Z,17.92
2023-05-21T19:06:55.968Z,17.96
2023-05-21T19:09:24.536Z,17.89
2023-05-21T19:11:51.747Z,17.78
2023-05-21T19:14:20.318Z,17.90
2023-05-21T19:16:47.293Z,17.91
2023-05-21T19:19:14.265Z,18.12
2023-05-21T19:21:41.414Z,17.95
2023-05-21T19:24:08.439Z,17.66
2023-05-21T19:26:36.905Z,17.43
2023-05-21T19:29:03.871Z,17.67
2023-05-21T19:31:30.900Z,17.60
2023-05-21T19:33:57.810Z,17.56
2023-05-21T19:36:24.769Z,17.58
2023-05-21T19:38:51.794Z,17.49
2023-05-21T19:41:19.945Z,17.06
2023-05-21T19:43:48.278Z,17.16
2023-05-21T19:46:19.117Z,17.13
2023-05-21T19:48:47.121Z,16.72
2023-05-21T19:51:14.115Z,17.14
2023-05-21T19:53:40.966Z,16.55
2023-05-21T19:56:08.065Z,16.95
2023-05-21T19:58:34.963Z,16.96
2023-05-21T20:01:03.708Z,17.17
2023-05-21T20:03:35.862Z,16.79
2023-05-21T20:06:02.985Z,16.87
2023-05-21T20:08:30.156Z,16.85
2023-05-21T20:10:57.269Z,16.79
2023-05-21T20:13:24.491Z,16.69
2023-05-21T20:15:51.621Z,16.66
2023-05-21T20:18:22.721Z,16.65
2023-05-21T20:20:49.642Z,16.70
2023-05-21T20:23:16.672Z,16.71
2023-05-21T20:25:43.726Z,16.79
2023-05-21T20:28:10.791Z,16.83
2023-05-21T20:30:54.066Z,16.56
2023-05-21T20:33:22.459Z,16.57
2023-05-21T20:35:49.523Z,16.40
2023-05-21T20:38:17.342Z,16.36
2023-05-21T20:40:44.621Z,16.52
2023-05-21T20:43:13.758Z,16.48
2023-05-21T20:45:41.879Z,16.39
2023-05-21T20:48:09.965Z,16.60
2023-05-21T20:50:38.913Z,16.64
2023-05-21T20:53:06.384Z,16.10
2023-05-21T20:55:34.872Z,16.13
2023-05-21T20:58:02.618Z,16.31
2023-05-21T21:00:29.768Z,15.99
2023-05-21T21:02:58.365Z,16.21
2023-05-21T21:05:25.462Z,16.14
2023-05-21T21:07:55.884Z,16.17
2023-05-21T21:10:23.184Z,16.28
2023-05-21T21:12:50.079Z,16.32
2023-05-21T21:15:17.149Z,16.15
2023-05-21T21:17:44.338Z,16.14
2023-05-21T21:20:13.759Z,16.00
2023-05-21T21:22:41.291Z,16.12
2023-05-21T21:25:10.405Z,15.90
2023-05-21T21:27:37.430Z,16.19
2023-05-21T21:30:04.976Z,16.26
2023-05-21T21:32:31.951Z,16.08
2023-05-21T21:34:58.920Z,16.18
2023-05-21T21:37:25.874Z,16.17
2023-05-21T21:39:53.577Z,16.32
2023-05-21T21:42:21.919Z,16.30
2023-05-21T21:44:48.885Z,16.33
2023-05-21T21:47:15.766Z,16.05
2023-05-21T21:49:42.747Z,16.07
2023-05-21T21:52:10.858Z,16.28
2023-05-21T21:54:37.710Z,16.30
2023-05-21T21:57:04.883Z,16.43
2023-05-21T21:59:33.931Z,16.31
2023-05-21T22:02:01.141Z,16.44
2023-05-21T22:04:28.308Z,16.15
2023-05-21T22:06:55.218Z,16.13
2023-05-21T22:09:22.705Z,16.16
2023-05-21T22:11:49.681Z,16.03
2023-05-21T22:14:18.275Z,15.80
2023-05-21T22:16:47.661Z,16.02
2023-05-21T22:19:16.152Z,16.34
2023-05-21T22:21:43.314Z,16.11
2023-05-21T22:24:20.639Z,16.49
2023-05-21T22:26:57.222Z,16.32
2023-05-21T22:29:24.090Z,16.21
2023-05-21T22:31:52.578Z,16.39
2023-05-21T22:34:19.428Z,16.46
2023-05-21T22:36:47.004Z,16.16
2023-05-21T22:39:14.184Z,16.45
2023-05-21T22:41:41.205Z,16.18
2023-05-21T22:44:08.101Z,16.37
2023-05-21T22:46:35.587Z,16.24
2023-05-21T22:49:03.913Z,16.35
2023-05-21T22:51:34.750Z,16.44
2023-05-21T22:54:02.020Z,16.29
2023-05-21T22:56:29.022Z,16.32
2023-05-21T22:58:56.303Z,16.00
2023-05-21T23:01:23.590Z,16.13
2023-05-21T23:03:51.460Z,16.29
2023-05-21T23:06:19.739Z,16.42
2023-05-21T23:08:46.796Z,16.28
2023-05-21T23:11:13.624Z,16.15
2023-05-21T23:13:40.494Z,16.31
2023-05-21T23:16:07.523Z,16.36
2023-05-21T23:18:35.128Z,16.27
2023-05-21T23:21:02.432Z,16.36
2023-05-21T23:23:31.055Z,16.36
2023-05-21T23:25:59.047Z,16.08
2023-05-21T23:28:26.587Z,16.31
2023-05-21T23:30:53.820Z,16.35
2023-05-21T23:33:20.837Z,16.49
2023-05-21T23:35:47.763Z,16.33
2023-05-21T23:38:14.633Z,16.26
2023-05-21T23:40:43.471Z,16.39
2023-05-21T23:43:10.391Z,16.30
2023-05-21T23:45:37.355Z,16.43
2023-05-21T23:48:04.570Z,16.16
2023-05-21T23:50:31.436Z,16.15
2023-05-21T23:52:58.722Z,16.05
2023-05-21T23:55:25.648Z,16.34
2023-05-21T23:57:53.949Z,16.38
